Time;durP1;ratioP1;P1;durP2;ratioP2;P2;SDS_P1;SDS_P2;PMS_P1;PMS_P2;Temp;Humidity;BMP_temperature;BMP_pressure;BME280_temperature;BME280_humidity;BME280_pressure;Samples;Min_cycle;Max_cycle;Signal;HPM_P1;HPM_P2
2023/01/03 00:03:38;;;;;;;0.88;0.40;;;;;;;19.91;40.38;102523.16;16122409;19;129522;-47
2023/01/03 00:09:02;;;;;;;0.60;0.38;;;;;;;19.86;39.98;102509.94;16121745;19;129599;-45
2023/01/03 00:14:28;;;;;;;0.50;0.30;;;;;;;19.82;40.51;102522.53;16121193;19;131166;-46
2023/01/03 00:19:50;;;;;;;0.47;0.40;;;;;;;19.79;40.13;102514.66;16121208;19;129644;-47
2023/01/03 00:25:12;;;;;;;0.20;0.20;;;;;;;19.78;40.44;102515.72;16120940;19;129198;-46
2023/01/03 00:30:34;;;;;;;0.50;0.20;;;;;;;19.75;40.46;102513.38;16120383;19;130111;-46
2023/01/03 00:36:00;;;;;;;1.38;0.40;;;;;;;19.71;40.04;102499.06;16117057;19;130436;-46
2023/01/03 00:41:22;;;;;;;1.13;0.40;;;;;;;19.68;40.36;102503.13;16121465;19;129593;-45
2023/01/03 00:46:44;;;;;;;0.40;0.20;;;;;;;19.66;40.18;102499.72;16132671;19;132990;-45
2023/01/03 00:52:06;;;;;;;0.20;0.10;;;;;;;19.65;40.25;102499.91;16134628;19;129655;-46
2023/01/03 00:57:28;;;;;;;1.08;0.32;;;;;;;19.60;40.46;102483.91;16134198;19;130288;-45
2023/01/03 01:02:52;;;;;;;1.02;0.38;;;;;;;19.58;40.47;102494.34;16135215;19;130158;-46
2023/01/03 01:08:14;;;;;;;0.63;0.30;;;;;;;19.55;39.98;102510.59;16134328;19;131906;-46
2023/01/03 01:13:37;;;;;;;0.38;0.20;;;;;;;19.51;40.25;102508.25;16133144;19;130536;-43
2023/01/03 01:18:59;;;;;;;0.40;0.20;;;;;;;19.51;39.91;102521.28;16133369;19;129833;-50
2023/01/03 01:24:21;;;;;;;0.32;0.20;;;;;;;19.46;40.50;102516.38;16132418;19;129695;-44
2023/01/03 01:29:43;;;;;;;1.17;0.38;;;;;;;19.47;40.23;102522.75;16133415;19;128938;-45
2023/01/03 01:35:06;;;;;;;1.83;0.20;;;;;;;19.44;40.46;102524.06;16131585;19;129587;-46
2023/01/03 01:40:30;;;;;;;0.50;0.20;;;;;;;19.41;40.12;102524.47;16130842;19;129823;-45
2023/01/03 01:45:51;;;;;;;1.08;0.22;;;;;;;19.38;40.22;102525.75;16131312;19;129551;-44
2023/01/03 01:51:14;;;;;;;0.35;0.20;;;;;;;19.36;40.13;102533.44;16131057;19;130295;-45
2023/01/03 01:56:41;;;;;;;0.60;0.30;;;;;;;19.34;40.40;102541.13;16129673;19;129110;-45
2023/01/03 02:02:04;;;;;;;1.13;0.20;;;;;;;19.31;40.20;102544.34;16129291;19;129442;-48
2023/01/03 02:07:26;;;;;;;1.35;0.20;;;;;;;19.29;40.53;102554.78;16126974;19;130569;-48
2023/01/03 02:13:06;;;;;;;0.60;0.20;;;;;;;19.28;40.62;102552.19;16132132;19;130264;-46
2023/01/03 02:19:02;;;;;;;0.30;0.10;;;;;;;19.26;40.46;102555.19;16129730;19;129526;-47
2023/01/03 02:24:55;;;;;;;0.13;0.10;;;;;;;19.23;40.54;102550.06;16129840;19;129584;-46
2023/01/03 02:30:42;;;;;;;0.90;0.40;;;;;;;19.21;40.23;102547.50;16128787;19;130043;-46
2023/01/03 02:36:29;;;;;;;0.45;0.10;;;;;;;19.18;40.38;102547.06;16129190;19;129734;-44
2023/01/03 02:48:02;;;;;;;0.57;0.20;;;;;;;19.14;40.52;102556.84;16127831;19;129790;-47
2023/01/03 02:53:28;;;;;;;0.57;0.22;;;;;;;19.11;40.59;102555.38;16126393;19;129414;-45
2023/01/03 02:58:57;;;;;;;0.65;0.30;;;;;;;19.11;40.52;102554.50;16127353;19;129546;-43
2023/01/03 03:04:21;;;;;;;0.40;0.25;;;;;;;19.10;40.46;102561.09;16124900;19;135182;-50
2023/01/03 03:15:31;;;;;;;0.10;0.10;;;;;;;19.06;40.27;102544.91;16124660;19;130127;-45
2023/01/03 03:26:43;;;;;;;0.10;0.10;;;;;;;19.01;40.49;102541.88;16125415;19;131036;-45
2023/01/03 03:32:05;;;;;;;0.95;0.20;;;;;;;18.99;40.59;102535.69;16123220;19;130819;-43
2023/01/03 03:37:29;;;;;;;0.15;0.08;;;;;;;18.98;40.63;102539.53;16122084;19;129926;-44
2023/01/03 03:55:15;;;;;;;1.15;0.20;;;;;;;18.93;40.33;102525.44;16121537;19;129573;-44
2023/01/03 04:00:40;;;;;;;0.77;0.20;;;;;;;18.89;40.36;102521.38;16126561;19;129297;-47
2023/01/03 04:06:07;;;;;;;0.30;0.10;;;;;;;18.88;40.29;102526.09;16124873;19;129572;-50
2023/01/03 04:11:29;;;;;;;0.30;0.20;;;;;;;18.86;40.66;102547.63;16122392;19;129656;-45
2023/01/03 04:16:51;;;;;;;0.10;0.10;;;;;;;18.85;40.42;102542.25;16122361;19;130384;-45
2023/01/03 04:22:13;;;;;;;0.28;0.20;;;;;;;18.84;40.55;102530.31;16135739;19;131147;-44
2023/01/03 04:27:35;;;;;;;0.30;0.20;;;;;;;18.83;40.65;102516.69;16139263;19;130252;-45
2023/01/03 04:32:57;;;;;;;0.10;0.10;;;;;;;18.83;40.25;102523.06;16137825;19;130428;-44
2023/01/03 04:38:18;;;;;;;0.45;0.30;;;;;;;18.81;40.55;102511.31;16136070;19;129323;-44
2023/01/03 04:49:21;;;;;;;0.17;0.10;;;;;;;18.79;40.25;102499.59;16137761;19;129921;-45
2023/01/03 04:54:43;;;;;;;0.20;0.10;;;;;;;18.76;40.37;102495.31;16135945;19;129644;-45
2023/01/03 05:00:05;;;;;;;0.40;0.20;;;;;;;18.76;40.37;102500.88;16133879;19;131310;-46
2023/01/03 05:05:27;;;;;;;0.22;0.20;;;;;;;18.75;40.72;102499.16;16135265;19;129575;-47
2023/01/03 05:10:51;;;;;;;0.40;0.17;;;;;;;18.73;40.28;102509.59;16135786;19;129118;-46
2023/01/03 05:16:13;;;;;;;0.17;0.10;;;;;;;18.71;40.44;102503.41;16132017;19;129602;-45
2023/01/03 05:27:16;;;;;;;0.15;0.10;;;;;;;18.70;40.59;102495.31;16130969;19;130146;-47
2023/01/03 05:32:38;;;;;;;0.10;0.10;;;;;;;18.67;40.33;102491.03;16130489;19;129558;-46
2023/01/03 05:38:00;;;;;;;0.10;0.10;;;;;;;18.66;40.28;102494.88;16132575;19;130164;-50
2023/01/03 05:43:21;;;;;;;0.30;0.10;;;;;;;18.66;40.18;102486.56;16130781;19;130825;-45
2023/01/03 05:48:43;;;;;;;0.70;0.10;;;;;;;18.64;40.64;102474.81;16134065;19;129593;-46
2023/01/03 05:54:05;;;;;;;0.20;0.13;;;;;;;18.63;40.59;102475.88;16131536;19;129882;-46
2023/01/03 05:59:27;;;;;;;0.15;0.10;;;;;;;18.63;40.60;102467.56;16130005;19;129989;-46
2023/01/03 06:04:49;;;;;;;0.28;0.10;;;;;;;18.62;40.62;102482.47;16126751;19;129701;-50
2023/01/03 06:10:11;;;;;;;0.70;0.20;;;;;;;18.60;40.23;102474.38;16130269;19;129438;-46
2023/01/03 06:15:33;;;;;;;0.13;0.10;;;;;;;18.60;40.16;102479.06;16127190;19;130706;-46
2023/01/03 06:20:55;;;;;;;0.10;0.10;;;;;;;18.60;40.45;102506.78;16127912;19;130417;-48
2023/01/03 06:26:19;;;;;;;0.17;0.10;;;;;;;18.60;40.26;102501.22;16127781;19;129609;-47
2023/01/03 06:31:40;;;;;;;0.10;0.10;;;;;;;18.59;40.32;102511.47;16128825;19;131035;-45
2023/01/03 06:37:02;;;;;;;0.30;0.20;;;;;;;18.58;40.13;102495.91;16126026;19;129120;-45
2023/01/03 06:42:43;;;;;;;8.90;0.40;;;;;;;18.58;40.21;102511.69;16127270;19;133059;-45
2023/01/03 06:53:47;;;;;;;1.63;0.20;;;;;;;18.55;40.11;102509.34;16127876;19;129400;-46
2023/01/03 06:59:09;;;;;;;0.38;0.15;;;;;;;18.55;40.46;102512.09;16128056;19;130952;-45
2023/01/03 07:04:31;;;;;;;0.68;0.25;;;;;;;18.54;40.50;102519.53;16122389;19;133252;-47
2023/01/03 07:09:52;;;;;;;0.10;0.10;;;;;;;18.54;40.53;102532.56;16120533;19;129739;-49
2023/01/03 07:15:14;;;;;;;1.35;0.47;;;;;;;18.52;40.41;102530.00;16119663;19;130480;-49
2023/01/03 07:20:41;;;;;;;1.55;0.40;;;;;;;18.51;39.99;102519.09;16120723;19;130400;-46
2023/01/03 07:26:03;;;;;;;4.43;0.25;;;;;;;18.50;40.05;102525.72;16119498;19;129807;-45
2023/01/03 07:31:25;;;;;;;3.60;0.88;;;;;;;18.49;40.36;102532.31;16114080;19;129924;-45
2023/01/03 07:36:47;;;;;;;1.15;0.20;;;;;;;18.47;40.11;102540.84;16114490;19;130145;-48
2023/01/03 07:47:49;;;;;;;2.97;0.40;;;;;;;18.44;40.30;102552.34;16118744;19;131414;-46
2023/01/03 07:53:20;;;;;;;5.55;0.50;;;;;;;18.43;40.15;102557.03;16112400;19;131122;-45
2023/01/03 07:58:43;;;;;;;1.35;0.52;;;;;;;18.43;39.98;102553.38;16119160;19;130356;-46
2023/01/03 08:04:05;;;;;;;1.42;0.32;;;;;;;18.41;40.28;102552.72;16115057;19;131164;-44
2023/01/03 08:15:07;;;;;;;8.20;0.50;;;;;;;18.38;40.28;102548.44;16115865;19;129692;-45
2023/01/03 08:20:29;;;;;;;2.42;0.50;;;;;;;18.38;40.15;102555.91;16115783;19;129257;-45
2023/01/03 08:25:51;;;;;;;3.38;0.40;;;;;;;18.37;39.94;102557.81;16113431;19;129833;-47
2023/01/03 08:31:26;;;;;;;2.28;0.40;;;;;;;18.40;39.93;102562.13;16114905;19;130045;-46
2023/01/03 08:36:56;;;;;;;1.15;0.50;;;;;;;18.37;40.30;102552.25;16119431;19;130814;-49
2023/01/03 08:42:22;;;;;;;1.98;0.50;;;;;;;18.37;40.29;102559.72;16114422;19;129959;-46
2023/01/03 08:47:44;;;;;;;2.67;0.40;;;;;;;18.34;40.42;102563.75;16123360;19;129711;-49
2023/01/03 08:53:06;;;;;;;1.75;0.40;;;;;;;18.35;40.45;102571.00;16121184;19;129728;-47
2023/01/03 08:58:28;;;;;;;2.65;0.40;;;;;;;18.35;40.00;102572.94;16119547;19;130599;-51
2023/01/03 09:03:50;;;;;;;1.00;0.40;;;;;;;18.34;40.17;102580.38;16121701;19;130225;-48
2023/01/03 09:09:12;;;;;;;1.42;0.40;;;;;;;18.33;40.08;102581.47;16135717;19;130450;-48
2023/01/03 09:14:34;;;;;;;1.58;0.57;;;;;;;18.34;40.29;102585.91;16132603;19;129992;-49
2023/01/03 09:19:55;;;;;;;1.63;0.35;;;;;;;18.35;40.06;102578.47;16131677;19;130030;-51
2023/01/03 09:25:17;;;;;;;1.08;0.40;;;;;;;18.33;40.10;102583.34;16135512;19;131858;-46
2023/01/03 09:30:40;;;;;;;3.00;0.70;;;;;;;18.33;40.36;102575.03;16136877;19;133324;-48
2023/01/03 09:36:02;;;;;;;0.82;0.50;;;;;;;18.31;40.25;102592.72;16133078;19;129830;-44
2023/01/03 09:41:26;;;;;;;2.45;0.60;;;;;;;18.29;39.92;102588.47;16123826;19;130258;-44
2023/01/03 09:46:47;;;;;;;1.75;0.57;;;;;;;18.26;40.01;102584.19;16124176;19;129337;-50
2023/01/03 10:04:04;;;;;;;1.42;0.60;;;;;;;18.21;40.20;102592.25;16119550;19;129169;-50
2023/01/03 10:09:37;;;;;;;0.50;0.50;;;;;;;18.22;39.78;102598.63;16118884;19;130117;-48
2023/01/03 10:15:34;;;;;;;1.05;0.47;;;;;;;18.22;40.17;102595.84;16122452;19;129381;-45
2023/01/03 10:21:00;;;;;;;0.93;0.40;;;;;;;18.20;40.18;102601.59;16121515;19;130381;-44
2023/01/03 10:26:24;;;;;;;3.88;0.40;;;;;;;18.20;40.29;102607.16;16121815;19;129995;-44
2023/01/03 10:32:31;;;;;;;2.75;0.55;;;;;;;18.21;40.15;102602.47;16119732;19;129333;-46
2023/01/03 10:37:54;;;;;;;0.57;0.40;;;;;;;18.18;40.12;102609.25;16115637;19;129602;-47
2023/01/03 10:43:26;;;;;;;1.10;0.50;;;;;;;18.18;39.91;102602.88;16117236;19;128896;-49
2023/01/03 10:48:50;;;;;;;2.03;0.55;;;;;;;18.17;40.35;102613.09;16122152;19;129715;-51
2023/01/03 10:54:50;;;;;;;;;;;;;;;18.14;40.22;102611.59;16122940;19;129440;-47
2023/01/03 11:00:32;;;;;;;2.63;0.50;;;;;;;18.18;39.95;102605.66;16119619;19;131244;-46
2023/01/03 11:06:00;;;;;;;0.60;0.40;;;;;;;18.15;39.92;102602.22;16121652;19;129959;-47
2023/01/03 11:11:33;;;;;;;2.17;0.47;;;;;;;18.18;39.84;102597.34;16117375;19;130566;-47
2023/01/03 11:17:04;;;;;;;2.65;0.70;;;;;;;18.17;40.11;102602.00;16119689;19;133628;-46
2023/01/03 11:22:44;;;;;;;2.05;0.50;;;;;;;18.17;40.02;102598.41;16120077;19;131005;-47
2023/01/03 11:28:37;;;;;;;2.53;0.60;;;;;;;18.18;40.13;102592.63;16113927;19;131247;-45
2023/01/03 11:34:22;;;;;;;3.42;0.60;;;;;;;18.18;40.17;102587.09;16120878;19;129730;-46
2023/01/03 11:39:44;;;;;;;3.00;0.60;;;;;;;18.18;39.88;102575.19;16117168;19;130470;-50
2023/01/03 11:45:43;;;;;;;1.10;0.45;;;;;;;18.19;39.90;102569.41;16110384;19;130715;-45
2023/01/03 11:51:24;;;;;;;5.20;0.93;;;;;;;18.18;39.74;102564.94;16116669;19;131587;-48
2023/01/03 11:56:48;;;;;;;2.13;0.60;;;;;;;18.17;39.95;102567.91;16111954;19;131203;-47
2023/01/03 12:02:32;;;;;;;4.70;0.63;;;;;;;18.15;39.95;102563.44;16107255;19;129842;-46
2023/01/03 12:08:01;;;;;;;0.73;0.40;;;;;;;18.17;40.02;102556.84;16104881;19;129981;-48
2023/01/03 12:13:44;;;;;;;2.75;0.40;;;;;;;18.17;40.05;102548.53;16104699;19;132738;-50
2023/01/03 12:19:30;;;;;;;3.70;0.80;;;;;;;18.16;40.23;102544.88;16110626;19;131602;-47
2023/01/03 12:24:58;;;;;;;1.00;0.47;;;;;;;18.17;39.92;102540.22;16114436;19;129824;-49
2023/01/03 12:30:32;;;;;;;2.28;0.80;;;;;;;18.18;40.03;102530.84;16112591;19;129066;-50
2023/01/03 12:36:16;;;;;;;1.70;0.57;;;;;;;18.17;39.84;102529.97;16113656;19;130389;-44
2023/01/03 12:41:46;;;;;;;1.65;0.60;;;;;;;18.16;39.74;102522.72;16119460;19;130300;-44
2023/01/03 12:47:23;;;;;;;6.20;0.70;;;;;;;18.17;40.20;102518.06;16132307;19;129930;-45
2023/01/03 12:52:55;;;;;;;2.13;0.50;;;;;;;18.15;39.73;102521.88;16131494;19;132261;-49
2023/01/03 12:59:07;;;;;;;2.58;0.32;;;;;;;18.14;39.85;102519.34;16127081;19;130215;-47
2023/01/03 13:04:35;;;;;;;2.50;0.40;;;;;;;18.14;39.90;102524.88;16120021;19;130346;-45
2023/01/03 13:10:06;;;;;;;1.65;0.47;;;;;;;18.13;40.19;102509.31;16119902;19;130703;-45
2023/01/03 13:15:33;;;;;;;2.78;0.52;;;;;;;18.13;40.12;102501.00;16117879;19;129059;-49
2023/01/03 13:20:58;;;;;;;4.07;0.50;;;;;;;18.11;40.22;102501.19;16110054;19;131245;-45
2023/01/03 13:26:27;;;;;;;3.95;0.45;;;;;;;18.11;39.92;102487.34;16113835;19;132475;-47
2023/01/03 13:32:12;;;;;;;3.95;0.55;;;;;;;18.11;39.70;102498.41;16115306;19;129850;-50
2023/01/03 13:37:45;;;;;;;1.75;0.50;;;;;;;18.10;39.68;102496.72;16120677;19;129953;-44
2023/01/03 13:43:07;;;;;;;1.20;0.40;;;;;;;18.08;40.14;102504.38;16126592;19;130512;-47
2023/01/03 13:48:31;;;;;;;3.92;0.90;;;;;;;18.08;40.06;102487.78;16124444;19;129191;-45
2023/01/03 13:54:24;;;;;;;1.35;0.40;;;;;;;18.08;40.09;102486.91;16122411;19;130151;-46
2023/01/03 13:59:46;;;;;;;1.73;0.30;;;;;;;18.06;40.05;102464.97;16123874;19;129630;-46
2023/01/03 14:05:41;;;;;;;2.72;0.38;;;;;;;18.09;39.79;102467.28;16121700;19;130124;-46
2023/01/03 14:11:06;;;;;;;1.63;0.40;;;;;;;18.08;39.73;102457.31;16122568;19;129636;-49
2023/01/03 14:16:36;;;;;;;1.52;0.32;;;;;;;18.09;40.07;102466.47;16120680;19;129544;-45
2023/01/03 14:22:12;;;;;;;2.05;0.40;;;;;;;18.09;40.00;102469.22;16121356;19;130058;-46
2023/01/03 14:27:53;;;;;;;1.05;0.43;;;;;;;18.08;39.86;102465.63;16120737;19;129311;-45
2023/01/03 14:33:21;;;;;;;1.27;0.45;;;;;;;18.08;39.60;102465.63;16121582;19;130032;-45
2023/01/03 14:38:57;;;;;;;0.77;0.40;;;;;;;18.07;39.63;102461.13;16123010;19;130825;-49
2023/01/03 14:44:18;;;;;;;0.85;0.43;;;;;;;18.06;39.61;102439.16;16120743;19;130281;-47
2023/01/03 14:49:46;;;;;;;0.63;0.38;;;;;;;18.06;40.01;102442.81;16120256;19;130931;-48
2023/01/03 14:55:18;;;;;;;1.20;0.30;;;;;;;18.07;39.85;102441.75;16119185;19;130143;-45
2023/01/03 15:00:40;;;;;;;0.20;0.20;;;;;;;18.04;39.58;102442.16;16120405;19;131598;-45
2023/01/03 15:06:23;;;;;;;2.15;0.40;;;;;;;18.06;39.81;102439.16;16120083;19;129569;-51
2023/01/03 15:11:58;;;;;;;1.40;0.28;;;;;;;18.04;40.10;102439.38;16119797;19;129762;-47
2023/01/03 15:17:25;;;;;;;0.60;0.30;;;;;;;18.03;39.71;102439.59;16116436;19;130179;-50
2023/01/03 15:22:47;;;;;;;1.25;0.20;;;;;;;18.00;40.05;102438.06;16117708;19;129513;-44
2023/01/03 15:28:34;;;;;;;1.23;0.40;;;;;;;18.01;40.01;102442.56;16116010;19;129622;-51
2023/01/03 15:34:15;;;;;;;;;;;;;;;17.96;39.70;102434.03;16117459;19;129667;-51
2023/01/03 15:39:51;;;;;;;1.00;0.30;;;;;;;17.97;39.73;102431.03;16117647;19;129982;-53
2023/01/03 15:45:25;;;;;;;1.20;0.40;;;;;;;17.96;39.95;102434.03;16117021;19;130382;-52
2023/01/03 15:50:49;;;;;;;0.65;0.38;;;;;;;17.94;39.65;102420.38;16115145;19;129227;-52
2023/01/03 15:56:18;;;;;;;1.13;0.30;;;;;;;17.95;39.93;102421.25;16115885;19;130548;-53
2023/01/03 16:01:40;;;;;;;1.58;0.52;;;;;;;17.92;40.09;102416.94;16115377;19;129434;-52
2023/01/03 16:07:02;;;;;;;1.85;0.40;;;;;;;17.91;39.99;102403.31;16118200;19;132475;-54
2023/01/03 16:12:35;;;;;;;2.58;0.50;;;;;;;17.93;40.00;102413.13;16117153;19;129459;-54
2023/01/03 16:17:57;;;;;;;1.25;0.40;;;;;;;17.90;39.58;102413.56;16124843;19;129797;-53
2023/01/03 16:23:28;;;;;;;1.50;0.38;;;;;;;17.91;39.94;102408.84;16129881;19;130051;-45
2023/01/03 16:28:49;;;;;;;0.80;0.30;;;;;;;17.90;39.85;102412.69;16125274;19;129904;-49
2023/01/03 16:34:20;;;;;;;0.73;0.32;;;;;;;17.91;39.72;102411.63;16133075;19;131679;-46
2023/01/03 16:39:41;;;;;;;1.02;0.40;;;;;;;17.89;40.05;102417.38;16137948;19;129483;-51
2023/01/03 16:45:09;;;;;;;1.90;0.45;;;;;;;17.88;39.56;102417.56;16133943;19;129276;-49
2023/01/03 16:50:35;;;;;;;5.05;0.90;;;;;;;17.89;39.58;102399.91;16134046;19;129078;-50
2023/01/03 16:55:57;;;;;;;;;;;;;;;17.84;39.71;102404.16;16134666;19;130229;-49
2023/01/03 17:01:19;;;;;;;2.70;0.60;;;;;;;17.87;39.60;102415.84;16135465;19;129057;-49
2023/01/03 17:06:42;;;;;;;7.47;1.50;;;;;;;17.84;39.94;102409.69;16136895;19;129331;-50
2023/01/03 17:12:05;;;;;;;7.15;1.70;;;;;;;17.85;39.64;102410.53;16134483;19;129345;-44
2023/01/03 17:17:27;;;;;;;7.43;1.45;;;;;;;17.84;39.79;102415.22;16130091;19;129326;-45
2023/01/03 17:22:53;;;;;;;7.40;1.20;;;;;;;17.85;39.99;102411.38;16130241;19;130279;-47
2023/01/03 17:28:14;;;;;;;;;;;;;;;17.81;39.93;102401.78;16133217;19;130203;-44
2023/01/03 17:33:36;;;;;;;6.28;1.23;;;;;;;17.83;39.85;102396.91;16132276;19;129124;-47
2023/01/03 17:39:02;;;;;;;3.90;1.13;;;;;;;17.85;40.40;102383.69;16132550;19;129884;-48
2023/01/03 17:44:23;;;;;;;8.23;1.52;;;;;;;18.20;40.25;102373.63;16129803;19;130269;-45
2023/01/03 17:49:45;;;;;;;6.22;1.30;;;;;;;18.72;39.71;102372.03;16132858;19;135441;-48
2023/01/03 17:55:27;;;;;;;8.80;1.52;;;;;;;19.27;38.84;102356.25;16130935;19;129368;-47
2023/01/03 18:00:49;;;;;;;4.70;1.08;;;;;;;19.72;38.70;102367.50;16132474;19;129796;-47
2023/01/03 18:06:17;;;;;;;6.75;0.95;;;;;;;20.11;38.25;102343.44;16133009;19;130586;-48
2023/01/03 18:11:39;;;;;;;6.10;1.00;;;;;;;20.38;37.88;102334.91;16130778;19;130243;-44
2023/01/03 18:17:01;;;;;;;7.10;1.00;;;;;;;20.51;37.22;102327.56;16131414;19;129452;-45
2023/01/03 18:22:24;;;;;;;5.93;1.05;;;;;;;20.52;37.10;102329.25;16129858;19;130458;-48
2023/01/03 18:27:52;;;;;;;6.35;0.90;;;;;;;20.45;37.26;102332.09;16130332;19;129610;-47
2023/01/03 18:33:14;;;;;;;3.70;1.05;;;;;;;20.32;37.80;102330.25;16128864;19;129639;-50
2023/01/03 18:38:39;;;;;;;3.95;0.90;;;;;;;20.17;37.85;102329.69;16128567;19;130587;-49
2023/01/03 18:44:01;;;;;;;5.47;0.88;;;;;;;20.01;38.28;102326.38;16128903;19;129081;-48
2023/01/03 18:49:23;;;;;;;5.78;0.82;;;;;;;19.86;38.35;102334.97;16125203;19;129697;-47
2023/01/03 18:54:45;;;;;;;5.10;1.40;;;;;;;19.74;38.90;102340.38;16121751;19;129711;-50
2023/01/03 19:00:17;;;;;;;7.47;1.40;;;;;;;19.69;38.52;102320.72;16119028;19;129720;-44
2023/01/03 19:05:39;;;;;;;5.75;1.08;;;;;;;19.64;38.95;102313.06;16119384;19;129461;-46
2023/01/03 19:11:06;;;;;;;9.40;1.23;;;;;;;19.79;38.64;102298.88;16119236;19;130688;-45
2023/01/03 19:16:34;;;;;;;7.40;1.10;;;;;;;20.10;38.61;102293.63;16115435;19;129465;-45
2023/01/03 19:21:55;;;;;;;7.38;1.17;;;;;;;20.38;38.30;102300.72;16117325;19;129750;-46
2023/01/03 19:27:22;;;;;;;5.63;1.42;;;;;;;20.67;38.15;102292.81;16116078;19;131295;-47
2023/01/03 19:32:50;;;;;;;9.70;0.98;;;;;;;20.92;37.63;102291.97;16117248;19;129241;-47
2023/01/03 19:38:12;;;;;;;5.65;0.80;;;;;;;21.11;37.86;102277.00;16116507;19;130865;-47
2023/01/03 19:43:33;;;;;;;2.55;0.82;;;;;;;21.28;37.55;102257.75;16116682;19;129804;-48
2023/01/03 19:48:55;;;;;;;4.75;0.90;;;;;;;21.43;37.31;102250.94;16114040;19;131229;-49
2023/01/03 19:54:17;;;;;;;4.38;0.65;;;;;;;21.52;37.15;102249.56;16117283;19;129630;-49
2023/01/03 19:59:40;;;;;;;3.63;0.80;;;;;;;21.62;37.05;102247.06;16117829;19;130172;-49
2023/01/03 20:05:05;;;;;;;6.93;0.90;;;;;;;21.69;36.79;102238.63;16117430;19;130947;-46
2023/01/03 20:10:31;;;;;;;8.98;0.93;;;;;;;21.75;36.82;102237.69;16118207;19;132132;-47
2023/01/03 20:15:58;;;;;;;8.43;1.58;;;;;;;21.80;36.92;102223.88;16114937;19;130042;-48
2023/01/03 20:21:26;;;;;;;9.15;0.90;;;;;;;21.80;36.42;102204.38;16115750;19;131143;-49
2023/01/03 20:26:49;;;;;;;11.23;1.17;;;;;;;21.71;36.37;102182.69;16114225;19;129921;-47
2023/01/03 20:32:11;;;;;;;10.50;1.20;;;;;;;21.63;36.60;102201.44;16113816;19;128949;-49
2023/01/03 20:37:33;;;;;;;13.60;1.25;;;;;;;21.55;36.54;102198.97;16112484;19;129062;-47
2023/01/03 20:42:56;;;;;;;10.55;1.25;;;;;;;21.47;36.82;102202.06;16111802;19;129872;-49
2023/01/03 20:48:18;;;;;;;16.15;1.25;;;;;;;21.37;36.80;102183.13;16111769;19;130179;-47
2023/01/03 20:53:46;;;;;;;5.75;0.88;;;;;;;21.22;36.90;102178.81;16112039;19;129859;-46
2023/01/03 20:59:19;;;;;;;15.38;1.52;;;;;;;21.08;36.21;102159.75;16111217;19;130097;-48
2023/01/03 21:04:41;;;;;;;15.52;2.00;;;;;;;20.93;36.39;102146.22;16124623;19;130082;-45
2023/01/03 21:10:03;;;;;;;21.05;1.73;;;;;;;20.82;37.01;102151.47;16125849;19;129260;-46
2023/01/03 21:15:25;;;;;;;21.08;2.42;;;;;;;20.73;37.29;102147.25;16126218;19;130185;-46
2023/01/03 21:20:47;;;;;;;35.22;2.33;;;;;;;20.58;37.29;102134.59;16124944;19;130279;-47
2023/01/03 21:26:09;;;;;;;14.15;1.88;;;;;;;20.44;36.97;102135.78;16121117;19;129480;-47
2023/01/03 21:31:32;;;;;;;16.13;2.50;;;;;;;20.31;37.28;102122.91;16117106;19;130088;-47
2023/01/03 21:36:55;;;;;;;16.55;1.73;;;;;;;20.20;37.06;102105.03;16105341;19;130744;-45
2023/01/03 21:47:57;;;;;;;6.63;1.08;;;;;;;19.99;37.12;102093.25;16122003;19;130829;-44
2023/01/03 21:53:21;;;;;;;11.18;1.15;;;;;;;19.91;37.35;102090.75;16115610;19;130095;-43
2023/01/03 21:58:43;;;;;;;9.00;1.30;;;;;;;19.83;37.63;102094.66;16110304;19;130842;-44
2023/01/03 22:04:16;;;;;;;12.35;1.58;;;;;;;19.75;37.27;102082.97;16110536;19;131505;-45
2023/01/03 22:15:19;;;;;;;8.60;1.23;;;;;;;19.60;37.51;102074.97;16110182;19;132796;-46
2023/01/03 22:20:40;;;;;;;6.20;0.90;;;;;;;19.53;37.71;102063.94;16111381;19;130052;-44
2023/01/03 22:26:11;;;;;;;6.30;0.90;;;;;;;19.49;37.47;102065.44;16115723;19;130169;-47
2023/01/03 22:31:33;;;;;;;4.20;0.95;;;;;;;19.42;37.71;102048.84;16110983;19;130468;-43
2023/01/03 22:36:55;;;;;;;3.88;0.75;;;;;;;19.35;37.30;102054.44;16113400;19;129672;-45
2023/01/03 22:42:17;;;;;;;7.03;0.80;;;;;;;19.32;37.34;102041.00;16115694;19;130247;-48
2023/01/03 22:47:41;;;;;;;4.07;0.85;;;;;;;19.27;37.79;102031.66;16117540;19;129937;-44
2023/01/03 22:53:03;;;;;;;3.22;0.82;;;;;;;19.23;37.76;102017.38;16116723;19;129746;-45
2023/01/03 22:58:24;;;;;;;4.35;0.82;;;;;;;19.18;37.62;102020.78;16115747;19;128914;-44
2023/01/03 23:03:47;;;;;;;3.47;0.60;;;;;;;19.15;37.62;102024.00;16114720;19;129742;-46
2023/01/03 23:09:09;;;;;;;2.78;0.80;;;;;;;19.13;37.35;102005.91;16117083;19;129097;-46
2023/01/03 23:14:31;;;;;;;3.72;0.95;;;;;;;19.10;37.51;102006.34;16113706;19;129823;-46
2023/01/03 23:19:53;;;;;;;2.30;0.55;;;;;;;19.05;37.33;101994.00;16115118;19;129417;-46
2023/01/03 23:25:15;;;;;;;2.92;0.60;;;;;;;19.02;37.71;101997.22;16113606;19;129518;-47
2023/01/03 23:30:37;;;;;;;2.42;0.85;;;;;;;18.99;37.69;101971.84;16114265;19;128881;-44
2023/01/03 23:36:06;;;;;;;4.47;0.70;;;;;;;18.97;37.31;101957.38;16114144;19;129166;-45
2023/01/03 23:41:28;;;;;;;2.50;1.00;;;;;;;18.92;37.63;101944.16;16114814;19;129832;-45
2023/01/03 23:46:49;;;;;;;4.00;0.65;;;;;;;18.89;37.83;101930.75;16116564;19;130652;-43
2023/01/03 23:52:11;;;;;;;3.95;0.73;;;;;;;18.86;37.49;101922.88;16110942;19;129611;-44
2023/01/03 23:57:33;;;;;;;1.65;0.63;;;;;;;18.84;37.37;101898.16;16112430;19;129549;-46
